createdAt,value
2018-09-18T00:02:24.547Z,101051.66
2018-09-18T00:05:28.665Z,101051.89
2018-09-18T00:08:33.266Z,101045.54
2018-09-18T00:11:37.454Z,101042.80
2018-09-18T00:14:41.461Z,101039.77
2018-09-18T00:17:46.048Z,101039.55
2018-09-18T00:20:51.140Z,101033.70
2018-09-18T00:23:55.819Z,101039.55
2018-09-18T00:26:59.800Z,101039.17
2018-09-18T00:30:04.925Z,101027.37
2018-09-18T00:33:09.645Z,101032.56
2018-09-18T00:36:14.178Z,101024.79
2018-09-18T00:39:18.155Z,101027.73
2018-09-18T00:42:23.335Z,101018.89
2018-09-18T00:45:28.001Z,101016.77
2018-09-18T00:48:32.386Z,101009.17
2018-09-18T00:51:36.322Z,101003.89
2018-09-18T00:54:40.834Z,101010.86
2018-09-18T00:57:44.985Z,100998.88
2018-09-18T01:00:49.554Z,100995.55
2018-09-18T01:03:53.581Z,100993.88
2018-09-18T01:06:57.636Z,100993.96
2018-09-18T01:10:02.278Z,100993.66
2018-09-18T01:13:06.443Z,100989.50
2018-09-18T01:16:10.467Z,100996.47
2018-09-18T01:19:14.494Z,100990.12
2018-09-18T01:22:18.634Z,100989.67
2018-09-18T01:25:22.656Z,100986.71
2018-09-18T01:28:26.602Z,100987.92
2018-09-18T01:31:32.032Z,100985.59
2018-09-18T01:34:36.445Z,100984.72
2018-09-18T01:37:40.422Z,100977.58
2018-09-18T01:40:45.066Z,100980.41
2018-09-18T01:43:49.636Z,100978.41
2018-09-18T01:46:54.797Z,100976.56
2018-09-18T01:49:59.105Z,100973.08
2018-09-18T01:53:04.334Z,100973.05
2018-09-18T01:56:09.426Z,100965.95
2018-09-18T01:59:13.715Z,100968.07
2018-09-18T02:02:17.726Z,100965.25
2018-09-18T02:05:21.676Z,100966.16
2018-09-18T02:08:25.663Z,100964.62
2018-09-18T02:11:29.615Z,100962.58
2018-09-18T02:14:36.054Z,100968.22
2018-09-18T02:17:40.534Z,100964.97
2018-09-18T02:20:44.758Z,100957.91
2018-09-18T02:23:49.189Z,100959.80
2018-09-18T02:26:53.157Z,100950.16
2018-09-18T02:29:57.830Z,100952.56
2018-09-18T02:33:02.255Z,100950.67
2018-09-18T02:36:06.587Z,100942.86
2018-09-18T02:39:12.027Z,100944.80
2018-09-18T02:42:15.987Z,100943.43
2018-09-18T02:45:20.004Z,100939.39
2018-09-18T02:48:24.796Z,100943.26
2018-09-18T02:51:28.766Z,100940.54
2018-09-18T02:54:32.949Z,100945.52
2018-09-18T02:57:36.995Z,100939.08
2018-09-18T03:00:41.296Z,100938.91
2018-09-18T03:03:45.266Z,100937.98
2018-09-18T03:06:49.575Z,100929.42
2018-09-18T03:09:55.136Z,100937.38
2018-09-18T03:12:59.877Z,100933.89
2018-09-18T03:16:05.076Z,100929.19
2018-09-18T03:19:11.367Z,100935.63
2018-09-18T03:22:15.396Z,100927.81
2018-09-18T03:25:19.386Z,100928.19
2018-09-18T03:28:23.646Z,100922.56
2018-09-18T03:31:28.766Z,100922.94
2018-09-18T03:34:33.675Z,100916.95
2018-09-18T03:37:37.927Z,100913.45
2018-09-18T03:40:41.936Z,100917.33
2018-09-18T03:43:46.647Z,100916.41
2018-09-18T03:46:52.373Z,100912.17
2018-09-18T03:49:56.785Z,100904.80
2018-09-18T03:53:00.887Z,100904.52
2018-09-18T03:56:05.116Z,100902.31
2018-09-18T03:59:10.006Z,100899.83
2018-09-18T04:02:14.425Z,100899.28
2018-09-18T04:05:18.991Z,100893.75
2018-09-18T04:08:22.955Z,100893.01
2018-09-18T04:11:28.031Z,100887.85
2018-09-18T04:14:32.978Z,100889.88
2018-09-18T04:17:37.151Z,100883.62
2018-09-18T04:20:41.389Z,100886.20
2018-09-18T04:35:00.866Z,100882.11
2018-09-18T04:38:05.485Z,100879.89
2018-09-18T04:41:09.422Z,100870.13
2018-09-18T04:44:13.613Z,100875.38
2018-09-18T04:47:18.004Z,100877.13
2018-09-18T04:50:22.167Z,100870.31
2018-09-18T04:53:26.174Z,100866.81
2018-09-18T04:56:30.934Z,100866.81
2018-09-18T04:59:35.136Z,100864.61
2018-09-18T05:02:40.022Z,100862.03
2018-09-18T05:05:44.055Z,100858.99
2018-09-18T05:08:48.148Z,100862.03
2018-09-18T05:11:52.806Z,100865.34
2018-09-18T05:14:57.407Z,100864.37
2018-09-18T05:18:02.265Z,100867.32
2018-09-18T05:21:06.577Z,100864.66
2018-09-18T05:24:10.575Z,100865.94
2018-09-18T05:27:16.057Z,100862.81
2018-09-18T05:30:20.082Z,100869.17
2018-09-18T05:33:25.400Z,100866.13
2018-09-18T05:36:29.619Z,100869.45
2018-09-18T05:39:33.635Z,100869.39
2018-09-18T05:42:38.375Z,100866.72
2018-09-18T05:45:42.867Z,100866.17
2018-09-18T05:48:46.878Z,100871.15
2018-09-18T05:51:51.730Z,100868.94
2018-09-18T05:54:55.727Z,100876.02
2018-09-18T05:58:00.156Z,100863.48
2018-09-18T06:01:04.516Z,100868.00
2018-09-18T06:04:08.703Z,100868.83
2018-09-18T06:07:12.892Z,100865.15
2018-09-18T06:10:16.906Z,100861.13
2018-09-18T06:13:22.409Z,100866.11
2018-09-18T06:16:26.472Z,100865.00
2018-09-18T06:19:30.711Z,100860.98
2018-09-18T06:22:36.158Z,100868.53
2018-09-18T06:25:41.446Z,100864.84
2018-09-18T06:28:45.775Z,100861.19
2018-09-18T06:31:52.214Z,100864.69
2018-09-18T06:34:56.369Z,100862.32
2018-09-18T06:38:00.850Z,100854.76
2018-09-18T06:41:04.978Z,100860.93
2018-09-18T06:44:09.628Z,100855.52
2018-09-18T06:47:14.248Z,100850.44
2018-09-18T06:50:18.746Z,100841.42
2018-09-18T06:53:24.126Z,100841.13
2018-09-18T06:56:28.122Z,100833.95
2018-09-18T06:59:33.093Z,100837.81
2018-09-18T07:02:39.516Z,100836.26
2018-09-18T07:05:43.495Z,100839.67
2018-09-18T07:08:47.731Z,100836.34
2018-09-18T07:11:52.536Z,100838.16
2018-09-18T07:14:56.486Z,100839.82
2018-09-18T07:18:01.492Z,100841.61
2018-09-18T07:21:08.736Z,100834.39
2018-09-18T07:24:12.753Z,100837.80
2018-09-18T07:27:16.714Z,100833.09
2018-09-18T07:30:20.748Z,100827.78
2018-09-18T07:33:24.806Z,100826.83
2018-09-18T07:36:28.798Z,100827.91
2018-09-18T07:39:34.962Z,100829.19
2018-09-18T07:42:40.233Z,100830.25
2018-09-18T07:45:44.354Z,100825.85
2018-09-18T07:48:48.380Z,100826.30
2018-09-18T07:51:52.408Z,100818.94
2018-09-18T07:54:56.411Z,100826.00
2018-09-18T07:58:02.717Z,100816.91
2018-09-18T08:01:07.803Z,100821.59
2018-09-18T08:04:11.860Z,100821.47
2018-09-18T08:07:17.919Z,100823.41
2018-09-18T08:10:22.538Z,100821.97
2018-09-18T08:13:28.109Z,100818.52
2018-09-18T08:16:34.329Z,100816.37
2018-09-18T08:19:39.764Z,100816.48
2018-09-18T08:22:44.177Z,100819.27
2018-09-18T08:25:48.876Z,100819.68
2018-09-18T08:28:53.981Z,100820.72
2018-09-18T08:31:58.011Z,100812.87
2018-09-18T08:35:01.992Z,100814.45
2018-09-18T08:38:06.327Z,100818.63
2018-09-18T08:41:10.877Z,100810.55
2018-09-18T08:44:14.925Z,100809.77
2018-09-18T08:47:19.550Z,100819.02
2018-09-18T08:50:23.763Z,100816.11
2018-09-18T08:53:29.758Z,100815.78
2018-09-18T08:56:35.234Z,100815.94
2018-09-18T08:59:39.749Z,100813.62
2018-09-18T09:02:43.754Z,100805.14
2018-09-18T09:05:48.065Z,100801.75
2018-09-18T09:08:52.289Z,100799.63
2018-09-18T09:11:56.496Z,100797.38
2018-09-18T09:15:01.823Z,100796.66
2018-09-18T09:18:06.317Z,100796.97
2018-09-18T09:21:11.103Z,100795.85
2018-09-18T09:24:15.898Z,100787.00
2018-09-18T09:27:20.251Z,100783.45
2018-09-18T09:30:24.430Z,100779.91
2018-09-18T09:33:28.392Z,100780.05
2018-09-18T09:36:36.453Z,100769.63
2018-09-18T09:39:41.037Z,100763.03
2018-09-18T09:42:45.028Z,100761.87
2018-09-18T09:45:49.011Z,100751.58
2018-09-18T09:48:53.014Z,100747.81
2018-09-18T09:51:57.024Z,100752.88
2018-09-18T09:55:01.191Z,100743.58
2018-09-18T09:58:05.981Z,100740.23
2018-09-18T10:01:16.591Z,100733.82
2018-09-18T10:04:21.488Z,100731.84
2018-09-18T10:07:26.248Z,100738.80
2018-09-18T10:10:30.270Z,100736.13
2018-09-18T10:13:34.452Z,100730.02
2018-09-18T10:16:39.606Z,100725.69
2018-09-18T10:19:44.223Z,100728.53
2018-09-18T10:22:48.213Z,100726.20
2018-09-18T10:25:53.032Z,100726.53
2018-09-18T10:28:59.384Z,100723.55
2018-09-18T10:32:03.605Z,100726.17
2018-09-18T10:35:08.242Z,100726.27
2018-09-18T10:38:12.497Z,100717.06
2018-09-18T10:41:16.694Z,100710.05
2018-09-18T10:44:20.777Z,100709.38
2018-09-18T10:47:28.758Z,100698.78
2018-09-18T10:50:33.039Z,100694.58
2018-09-18T10:53:38.366Z,100691.14
2018-09-18T10:56:42.356Z,100681.70
2018-09-18T10:59:46.473Z,100681.30
2018-09-18T11:02:50.712Z,100668.80
2018-09-18T11:05:56.068Z,100671.86
2018-09-18T11:09:00.446Z,100665.86
2018-09-18T11:12:05.302Z,100667.80
2018-09-18T11:15:09.786Z,100657.93
2018-09-18T11:18:13.845Z,100660.98
2018-09-18T11:21:19.817Z,100654.58
2018-09-18T11:24:24.068Z,100656.25
2018-09-18T11:27:28.235Z,100653.23
2018-09-18T11:30:32.498Z,100654.58
2018-09-18T11:33:36.546Z,100650.74
2018-09-18T11:36:41.987Z,100653.80
2018-09-18T11:39:46.677Z,100653.73
2018-09-18T11:42:50.717Z,100646.22
2018-09-18T11:45:56.281Z,100647.98
2018-09-18T11:49:00.579Z,100635.49
2018-09-18T11:52:04.667Z,100637.39
2018-09-18T11:55:09.248Z,100628.66
2018-09-18T11:58:13.682Z,100617.43
2018-09-18T12:01:18.242Z,100613.20
2018-09-18T12:04:22.332Z,100611.56
2018-09-18T12:07:26.396Z,100605.41
2018-09-18T12:10:30.620Z,100606.08
2018-09-18T12:13:34.876Z,100598.30
2018-09-18T12:16:39.094Z,100599.09
2018-09-18T12:19:43.096Z,100588.12
2018-09-18T12:22:49.438Z,100603.39
2018-09-18T12:25:54.436Z,100596.86
2018-09-18T12:28:58.504Z,100595.27
2018-09-18T12:32:02.687Z,100592.33
2018-09-18T12:35:08.141Z,100591.55
2018-09-18T12:38:12.385Z,100587.49
2018-09-18T12:41:16.481Z,100586.22
2018-09-18T12:44:20.858Z,100578.34
2018-09-18T12:47:25.049Z,100577.39
2018-09-18T12:50:30.407Z,100575.16
2018-09-18T12:53:35.010Z,100575.80
2018-09-18T12:56:41.382Z,100573.37
2018-09-18T12:59:45.993Z,100570.11
2018-09-18T13:02:51.595Z,100581.91
2018-09-18T13:05:56.121Z,100569.92
2018-09-18T13:09:00.427Z,100561.08
2018-09-18T13:12:06.027Z,100558.61
2018-09-18T13:15:10.410Z,100558.59
2018-09-18T13:18:15.308Z,100561.09
2018-09-18T13:21:19.546Z,100552.20
2018-09-18T13:24:23.778Z,100548.23
2018-09-18T13:27:27.770Z,100548.25
2018-09-18T13:30:32.347Z,100550.84
2018-09-18T13:33:36.755Z,100551.33
2018-09-18T13:36:42.908Z,100541.88
2018-09-18T13:39:46.919Z,100542.85
2018-09-18T13:42:51.314Z,100551.38
2018-09-18T13:45:56.255Z,100548.05
2018-09-18T13:49:00.269Z,100552.27
2018-09-18T13:52:04.750Z,100542.89
2018-09-18T13:55:09.028Z,100528.23
2018-09-18T13:58:13.456Z,100524.32
2018-09-18T14:01:17.845Z,100522.01
2018-09-18T14:04:22.612Z,100519.34
2018-09-18T14:07:27.174Z,100517.98
2018-09-18T14:10:31.257Z,100507.78
2018-09-18T14:13:35.455Z,100507.84
2018-09-18T14:16:40.188Z,100505.62
2018-09-18T14:19:44.496Z,100500.52
2018-09-18T14:22:48.833Z,100498.31
2018-09-18T14:25:52.838Z,100504.33
2018-09-18T14:28:57.057Z,100497.58
2018-09-18T14:32:01.040Z,100493.97
2018-09-18T14:35:06.092Z,100500.07
2018-09-18T14:38:10.153Z,100490.66
2018-09-18T14:41:15.235Z,100487.14
2018-09-18T14:44:19.436Z,100480.57
2018-09-18T14:47:23.691Z,100481.84
2018-09-18T14:50:27.727Z,100479.32
2018-09-18T14:53:31.690Z,100485.78
2018-09-18T14:56:35.718Z,100477.41
2018-09-18T14:59:39.962Z,100486.16
2018-09-18T15:02:44.488Z,100483.09
2018-09-18T15:05:49.174Z,100480.45
2018-09-18T15:08:53.187Z,100475.58
2018-09-18T15:11:57.590Z,100474.06
2018-09-18T15:15:01.650Z,100469.38
2018-09-18T15:18:05.666Z,100468.51
2018-09-18T15:21:11.266Z,100474.01
2018-09-18T15:24:15.691Z,100472.33
2018-09-18T15:27:19.666Z,100472.13
2018-09-18T15:30:23.667Z,100474.27
2018-09-18T15:33:27.800Z,100473.56
2018-09-18T15:36:33.856Z,100475.45
2018-09-18T15:39:38.057Z,100474.92
2018-09-18T15:42:42.218Z,100483.21
2018-09-18T15:45:49.269Z,100482.13
2018-09-18T15:48:54.446Z,100476.95
2018-09-18T15:51:58.490Z,100471.56
2018-09-18T15:55:04.627Z,100469.44
2018-09-18T15:58:08.749Z,100472.93
2018-09-18T16:01:12.903Z,100469.80
2018-09-18T16:04:17.927Z,100466.44
2018-09-18T16:07:22.777Z,100457.95
2018-09-18T16:10:28.883Z,100464.56
2018-09-18T16:13:33.036Z,100468.89
2018-09-18T16:16:37.092Z,100469.77
2018-09-18T16:19:41.801Z,100467.16
2018-09-18T16:22:46.572Z,100467.84
2018-09-18T16:25:50.716Z,100472.14
2018-09-18T16:28:54.748Z,100476.77
2018-09-18T16:31:59.205Z,100470.37
2018-09-18T16:35:03.202Z,100471.69
2018-09-18T16:38:07.291Z,100472.19
2018-09-18T16:41:11.704Z,100477.63
2018-09-18T16:44:15.686Z,100473.88
2018-09-18T16:47:20.224Z,100475.52
2018-09-18T16:50:25.285Z,100480.92
2018-09-18T16:53:29.519Z,100483.56
2018-09-18T16:56:35.499Z,100480.44
2018-09-18T16:59:40.306Z,100491.37
2018-09-18T17:02:45.057Z,100494.17
2018-09-18T17:05:49.449Z,100495.48
2018-09-18T17:08:55.138Z,100502.02
2018-09-18T17:11:59.590Z,100504.78
2018-09-18T17:15:04.616Z,100507.56
2018-09-18T17:18:09.122Z,100506.09
2018-09-18T17:21:13.229Z,100517.72
2018-09-18T17:24:18.127Z,100543.62
2018-09-18T17:27:22.457Z,100564.80
2018-09-18T17:30:28.201Z,100577.61
2018-09-18T17:33:32.590Z,100586.77
2018-09-18T17:36:38.877Z,100592.77
2018-09-18T17:39:43.345Z,100597.64
2018-09-18T17:42:48.098Z,100602.03
2018-09-18T17:45:53.716Z,100609.36
2018-09-18T17:48:57.754Z,100615.52
2018-09-18T17:52:06.152Z,100625.95
2018-09-18T17:55:12.926Z,100630.44
2018-09-18T17:58:19.112Z,100637.23
2018-09-18T18:01:23.426Z,100639.60
2018-09-18T18:05:50.265Z,100650.65
2018-09-18T18:09:06.974Z,100656.61
2018-09-18T18:12:11.104Z,100662.89
2018-09-18T18:15:15.185Z,100666.55
2018-09-18T18:18:19.511Z,100680.97
2018-09-18T18:21:23.439Z,100680.75
2018-09-18T18:24:27.560Z,100695.83
2018-09-18T18:27:34.407Z,100703.42
2018-09-18T18:30:39.544Z,100705.59
2018-09-18T18:33:52.070Z,100705.61
2018-09-18T19:40:53.012Z,100810.52
2018-09-18T19:43:56.979Z,100816.62
2018-09-18T19:47:01.164Z,100824.36
2018-09-18T19:50:09.169Z,100828.78
2018-09-18T19:53:13.375Z,100836.25
2018-09-18T19:56:17.357Z,100837.37
2018-09-18T19:59:21.401Z,100843.33
2018-09-18T20:02:25.614Z,100843.11
2018-09-18T20:05:29.598Z,100847.86
2018-09-18T20:08:53.081Z,100848.69
2018-09-18T20:11:57.837Z,100850.01
2018-09-18T20:15:01.855Z,100849.33
2018-09-18T20:18:06.281Z,100854.11
2018-09-18T20:21:10.928Z,100851.31
2018-09-18T20:24:14.975Z,100847.31
2018-09-18T20:27:19.202Z,100849.36
2018-09-18T20:30:23.190Z,100856.48
2018-09-18T20:33:27.499Z,100854.94
2018-09-18T20:36:31.854Z,100869.03
2018-09-18T20:39:35.965Z,100865.73
2018-09-18T20:42:40.220Z,100869.06
2018-09-18T20:45:44.203Z,100872.02
2018-09-18T20:48:48.217Z,100874.88
2018-09-18T20:51:52.234Z,100880.44
2018-09-18T20:54:56.213Z,100880.13
2018-09-18T20:58:00.326Z,100873.62
2018-09-18T21:01:04.296Z,100879.42
2018-09-18T21:04:08.510Z,100887.83
2018-09-18T21:07:12.494Z,100883.48
2018-09-18T21:10:16.494Z,100883.00
2018-09-18T21:13:20.522Z,100884.77
2018-09-18T21:16:24.513Z,100891.99
2018-09-18T21:19:28.668Z,100893.89
2018-09-18T21:22:32.856Z,100897.68
2018-09-18T21:26:16.550Z,100895.91
2018-09-18T21:29:20.580Z,100901.45
2018-09-18T21:32:24.831Z,100903.83
2018-09-18T21:35:29.079Z,100902.28
2018-09-18T21:38:33.162Z,100905.13
2018-09-18T21:41:37.215Z,100917.63
2018-09-18T21:44:41.558Z,100917.84
2018-09-18T21:47:45.526Z,100922.19
2018-09-18T21:50:49.755Z,100913.22
2018-09-18T21:53:53.916Z,100912.09
2018-09-18T21:56:58.232Z,100920.56
2018-09-18T22:00:02.304Z,100909.94
2018-09-18T22:03:06.264Z,100924.06
2018-09-18T22:06:10.636Z,100923.95
2018-09-18T22:09:14.637Z,100924.30
2018-09-18T22:12:18.740Z,100922.06
2018-09-18T22:15:23.386Z,100918.75
2018-09-18T22:18:27.385Z,100929.61
2018-09-18T22:21:31.382Z,100931.97
2018-09-18T22:24:35.322Z,100921.11
2018-09-18T22:27:39.589Z,100930.20
2018-09-18T22:30:43.759Z,100925.95
2018-09-18T22:33:48.105Z,100927.20
2018-09-18T22:36:52.155Z,100931.34
2018-09-18T22:39:56.584Z,100927.55
2018-09-18T22:43:00.620Z,100935.11
2018-09-18T22:46:05.406Z,100928.10
2018-09-18T22:49:09.407Z,100926.80
2018-09-18T22:52:13.376Z,100923.80
2018-09-18T22:55:17.551Z,100921.27
2018-09-18T22:58:21.545Z,100929.52
2018-09-18T23:01:26.420Z,100921.02
2018-09-18T23:04:30.385Z,100926.40
2018-09-18T23:07:34.935Z,100930.62
2018-09-18T23:10:38.956Z,100931.69
2018-09-18T23:13:42.955Z,100937.64
2018-09-18T23:16:47.572Z,100936.22
2018-09-18T23:19:51.975Z,100941.63
2018-09-18T23:22:55.967Z,100943.00
2018-09-18T23:26:00.336Z,100943.58
2018-09-18T23:29:05.106Z,100945.93
2018-09-18T23:32:09.049Z,100936.50
2018-09-18T23:35:13.396Z,100937.05
2018-09-18T23:38:17.358Z,100931.69
2018-09-18T23:41:21.316Z,100933.43
2018-09-18T23:44:26.008Z,100937.26
2018-09-18T23:47:30.397Z,100939.46
2018-09-18T23:50:34.998Z,100941.41
2018-09-18T23:53:40.237Z,100946.92
2018-09-18T23:56:44.202Z,100946.45
2018-09-18T23:59:48.208Z,100953.66
